sensor_id;sensor_type;location;lat;lon;timestamp;temperature;humidity
38020;DHT22;23829;51.350;17.286;2022-11-10T00:02:22;26.20;39.00
38020;DHT22;23829;51.350;17.286;2022-11-10T00:05:07;26.20;39.20
38020;DHT22;23829;51.350;17.286;2022-11-10T00:07:52;26.30;39.20
38020;DHT22;23829;51.350;17.286;2022-11-10T00:10:38;26.30;39.20
38020;DHT22;23829;51.350;17.286;2022-11-10T00:13:40;26.20;39.60
38020;DHT22;23829;51.350;17.286;2022-11-10T00:16:44;26.20;40.00
38020;DHT22;23829;51.350;17.286;2022-11-10T00:19:44;26.20;40.00
38020;DHT22;23829;51.350;17.286;2022-11-10T00:22:29;26.20;40.00
38020;DHT22;23829;51.350;17.286;2022-11-10T00:25:14;26.30;40.00
38020;DHT22;23829;51.350;17.286;2022-11-10T00:27:59;26.20;40.30
38020;DHT22;23829;51.350;17.286;2022-11-10T00:30:43;26.00;40.60
38020;DHT22;23829;51.350;17.286;2022-11-10T00:33:29;26.10;41.10
38020;DHT22;23829;51.350;17.286;2022-11-10T00:36:14;26.00;40.90
38020;DHT22;23829;51.350;17.286;2022-11-10T00:38:59;25.90;41.60
38020;DHT22;23829;51.350;17.286;2022-11-10T00:41:44;25.90;41.60
38020;DHT22;23829;51.350;17.286;2022-11-10T00:44:29;25.90;41.90
38020;DHT22;23829;51.350;17.286;2022-11-10T00:47:14;26.00;41.70
38020;DHT22;23829;51.350;17.286;2022-11-10T00:49:59;26.10;42.00
38020;DHT22;23829;51.350;17.286;2022-11-10T00:52:44;26.10;42.00
38020;DHT22;23829;51.350;17.286;2022-11-10T00:55:29;25.90;41.70
38020;DHT22;23829;51.350;17.286;2022-11-10T00:58:13;26.20;42.00
38020;DHT22;23829;51.350;17.286;2022-11-10T01:01:00;26.10;42.00
38020;DHT22;23829;51.350;17.286;2022-11-10T01:03:46;26.10;42.20
38020;DHT22;23829;51.350;17.286;2022-11-10T01:06:31;26.00;42.20
38020;DHT22;23829;51.350;17.286;2022-11-10T01:09:15;25.90;42.60
38020;DHT22;23829;51.350;17.286;2022-11-10T01:12:00;26.00;42.40
38020;DHT22;23829;51.350;17.286;2022-11-10T01:14:46;25.90;42.80
38020;DHT22;23829;51.350;17.286;2022-11-10T01:17:32;25.90;42.60
38020;DHT22;23829;51.350;17.286;2022-11-10T01:20:16;25.90;43.20
38020;DHT22;23829;51.350;17.286;2022-11-10T01:23:02;26.10;42.60
38020;DHT22;23829;51.350;17.286;2022-11-10T01:25:46;26.10;42.60
38020;DHT22;23829;51.350;17.286;2022-11-10T01:28:32;26.20;42.50
38020;DHT22;23829;51.350;17.286;2022-11-10T01:31:20;26.00;42.60
38020;DHT22;23829;51.350;17.286;2022-11-10T01:34:05;26.00;42.60
38020;DHT22;23829;51.350;17.286;2022-11-10T01:36:50;26.00;42.80
38020;DHT22;23829;51.350;17.286;2022-11-10T01:39:37;26.10;42.70
38020;DHT22;23829;51.350;17.286;2022-11-10T01:42:43;25.90;42.60
38020;DHT22;23829;51.350;17.286;2022-11-10T01:48:54;26.10;42.70
38020;DHT22;23829;51.350;17.286;2022-11-10T01:54:45;26.20;42.80
38020;DHT22;23829;51.350;17.286;2022-11-10T01:57:31;26.30;42.70
38020;DHT22;23829;51.350;17.286;2022-11-10T02:00:17;26.30;42.60
38020;DHT22;23829;51.350;17.286;2022-11-10T02:03:23;26.30;42.50
38020;DHT22;23829;51.350;17.286;2022-11-10T02:06:10;26.20;42.80
38020;DHT22;23829;51.350;17.286;2022-11-10T02:08:57;26.20;43.00
38020;DHT22;23829;51.350;17.286;2022-11-10T02:11:45;26.10;43.00
38020;DHT22;23829;51.350;17.286;2022-11-10T02:14:30;26.10;43.00
38020;DHT22;23829;51.350;17.286;2022-11-10T02:17:15;26.20;42.80
38020;DHT22;23829;51.350;17.286;2022-11-10T02:20:04;26.20;42.80
38020;DHT22;23829;51.350;17.286;2022-11-10T02:22:50;26.20;42.90
38020;DHT22;23829;51.350;17.286;2022-11-10T02:25:35;26.20;42.80
38020;DHT22;23829;51.350;17.286;2022-11-10T02:28:20;26.30;42.60
38020;DHT22;23829;51.350;17.286;2022-11-10T02:31:05;26.10;42.80
38020;DHT22;23829;51.350;17.286;2022-11-10T02:33:51;26.20;42.80
38020;DHT22;23829;51.350;17.286;2022-11-10T02:36:35;26.20;42.80
38020;DHT22;23829;51.350;17.286;2022-11-10T02:39:20;26.20;43.00
38020;DHT22;23829;51.350;17.286;2022-11-10T02:42:05;26.20;42.80
38020;DHT22;23829;51.350;17.286;2022-11-10T02:44:54;26.30;42.60
38020;DHT22;23829;51.350;17.286;2022-11-10T02:47:39;26.40;42.50
38020;DHT22;23829;51.350;17.286;2022-11-10T02:50:24;26.40;42.50
38020;DHT22;23829;51.350;17.286;2022-11-10T02:53:09;26.30;42.50
38020;DHT22;23829;51.350;17.286;2022-11-10T02:55:54;26.10;42.70
38020;DHT22;23829;51.350;17.286;2022-11-10T02:58:39;26.20;42.80
38020;DHT22;23829;51.350;17.286;2022-11-10T03:01:24;26.00;42.80
38020;DHT22;23829;51.350;17.286;2022-11-10T03:04:09;26.00;42.90
38020;DHT22;23829;51.350;17.286;2022-11-10T03:06:54;26.30;42.60
38020;DHT22;23829;51.350;17.286;2022-11-10T03:09:39;26.10;42.70
38020;DHT22;23829;51.350;17.286;2022-11-10T03:12:24;26.10;42.70
38020;DHT22;23829;51.350;17.286;2022-11-10T03:15:09;26.20;42.50
38020;DHT22;23829;51.350;17.286;2022-11-10T03:18:01;26.10;42.70
38020;DHT22;23829;51.350;17.286;2022-11-10T03:20:47;26.10;42.70
38020;DHT22;23829;51.350;17.286;2022-11-10T03:23:33;26.00;42.60
38020;DHT22;23829;51.350;17.286;2022-11-10T03:26:19;26.10;42.60
38020;DHT22;23829;51.350;17.286;2022-11-10T03:29:03;26.10;42.70
38020;DHT22;23829;51.350;17.286;2022-11-10T03:31:48;26.10;42.70
38020;DHT22;23829;51.350;17.286;2022-11-10T03:34:33;26.10;42.70
38020;DHT22;23829;51.350;17.286;2022-11-10T03:37:18;26.10;42.70
38020;DHT22;23829;51.350;17.286;2022-11-10T03:40:03;25.90;42.70
38020;DHT22;23829;51.350;17.286;2022-11-10T03:42:48;25.90;42.90
38020;DHT22;23829;51.350;17.286;2022-11-10T03:45:33;26.00;42.90
38020;DHT22;23829;51.350;17.286;2022-11-10T03:48:18;26.20;42.80
38020;DHT22;23829;51.350;17.286;2022-11-10T03:51:02;26.20;42.40
38020;DHT22;23829;51.350;17.286;2022-11-10T03:53:47;26.20;42.60
38020;DHT22;23829;51.350;17.286;2022-11-10T03:56:32;26.20;42.50
38020;DHT22;23829;51.350;17.286;2022-11-10T03:59:17;26.10;42.60
38020;DHT22;23829;51.350;17.286;2022-11-10T04:02:02;25.90;42.70
38020;DHT22;23829;51.350;17.286;2022-11-10T04:04:47;25.50;43.30
38020;DHT22;23829;51.350;17.286;2022-11-10T04:08:00;25.40;43.70
38020;DHT22;23829;51.350;17.286;2022-11-10T04:11:04;25.70;43.30
38020;DHT22;23829;51.350;17.286;2022-11-10T04:13:49;26.00;42.90
38020;DHT22;23829;51.350;17.286;2022-11-10T04:16:52;25.90;42.80
38020;DHT22;23829;51.350;17.286;2022-11-10T04:19:37;25.80;42.90
38020;DHT22;23829;51.350;17.286;2022-11-10T04:22:22;25.90;43.00
38020;DHT22;23829;51.350;17.286;2022-11-10T04:25:26;25.90;42.60
38020;DHT22;23829;51.350;17.286;2022-11-10T04:28:11;25.90;42.60
38020;DHT22;23829;51.350;17.286;2022-11-10T04:30:56;25.90;42.70
38020;DHT22;23829;51.350;17.286;2022-11-10T04:33:41;25.90;42.60
38020;DHT22;23829;51.350;17.286;2022-11-10T04:36:29;25.80;42.90
38020;DHT22;23829;51.350;17.286;2022-11-10T04:39:14;25.80;43.20
38020;DHT22;23829;51.350;17.286;2022-11-10T04:41:59;25.90;43.00
38020;DHT22;23829;51.350;17.286;2022-11-10T04:44:44;26.00;42.70
38020;DHT22;23829;51.350;17.286;2022-11-10T04:47:29;25.90;42.60
38020;DHT22;23829;51.350;17.286;2022-11-10T04:50:14;26.00;42.50
38020;DHT22;23829;51.350;17.286;2022-11-10T04:52:59;26.00;42.60
38020;DHT22;23829;51.350;17.286;2022-11-10T04:55:45;26.00;42.60
38020;DHT22;23829;51.350;17.286;2022-11-10T04:58:30;25.90;42.60
38020;DHT22;23829;51.350;17.286;2022-11-10T05:01:18;25.90;42.70
38020;DHT22;23829;51.350;17.286;2022-11-10T05:04:03;25.90;42.60
38020;DHT22;23829;51.350;17.286;2022-11-10T05:06:49;25.80;42.50
38020;DHT22;23829;51.350;17.286;2022-11-10T05:09:34;26.00;42.50
38020;DHT22;23829;51.350;17.286;2022-11-10T05:12:19;25.90;42.50
38020;DHT22;23829;51.350;17.286;2022-11-10T05:15:05;25.90;42.80
38020;DHT22;23829;51.350;17.286;2022-11-10T05:17:51;25.90;42.60
38020;DHT22;23829;51.350;17.286;2022-11-10T05:20:36;26.00;42.50
38020;DHT22;23829;51.350;17.286;2022-11-10T05:23:22;26.10;42.40
38020;DHT22;23829;51.350;17.286;2022-11-10T05:26:22;26.00;42.50
38020;DHT22;23829;51.350;17.286;2022-11-10T05:29:07;26.00;42.60
38020;DHT22;23829;51.350;17.286;2022-11-10T05:31:52;26.00;42.50
38020;DHT22;23829;51.350;17.286;2022-11-10T05:34:37;25.90;42.50
38020;DHT22;23829;51.350;17.286;2022-11-10T05:37:21;25.90;42.60
38020;DHT22;23829;51.350;17.286;2022-11-10T05:40:07;25.80;42.70
38020;DHT22;23829;51.350;17.286;2022-11-10T05:42:53;26.00;42.60
38020;DHT22;23829;51.350;17.286;2022-11-10T05:45:38;26.00;42.50
38020;DHT22;23829;51.350;17.286;2022-11-10T05:48:23;26.00;42.60
38020;DHT22;23829;51.350;17.286;2022-11-10T05:51:08;25.80;42.70
38020;DHT22;23829;51.350;17.286;2022-11-10T05:53:52;26.00;42.60
38020;DHT22;23829;51.350;17.286;2022-11-10T05:56:37;25.80;42.80
38020;DHT22;23829;51.350;17.286;2022-11-10T05:59:22;25.90;42.90
38020;DHT22;23829;51.350;17.286;2022-11-10T06:02:07;25.80;43.00
38020;DHT22;23829;51.350;17.286;2022-11-10T06:04:52;25.90;43.00
38020;DHT22;23829;51.350;17.286;2022-11-10T06:07:38;25.90;42.60
38020;DHT22;23829;51.350;17.286;2022-11-10T06:10:22;25.90;42.60
38020;DHT22;23829;51.350;17.286;2022-11-10T06:13:08;26.00;43.00
38020;DHT22;23829;51.350;17.286;2022-11-10T06:15:54;25.90;42.60
38020;DHT22;23829;51.350;17.286;2022-11-10T06:18:39;25.90;42.50
38020;DHT22;23829;51.350;17.286;2022-11-10T06:21:24;25.90;42.60
38020;DHT22;23829;51.350;17.286;2022-11-10T06:24:09;26.00;42.40
38020;DHT22;23829;51.350;17.286;2022-11-10T06:26:54;26.00;42.20
38020;DHT22;23829;51.350;17.286;2022-11-10T06:29:39;25.90;42.60
38020;DHT22;23829;51.350;17.286;2022-11-10T06:32:24;25.90;42.40
38020;DHT22;23829;51.350;17.286;2022-11-10T06:35:10;25.90;42.70
38020;DHT22;23829;51.350;17.286;2022-11-10T06:40:47;25.90;42.70
38020;DHT22;23829;51.350;17.286;2022-11-10T06:43:32;25.90;42.60
38020;DHT22;23829;51.350;17.286;2022-11-10T06:46:17;25.90;42.60
38020;DHT22;23829;51.350;17.286;2022-11-10T06:49:02;25.90;43.30
38020;DHT22;23829;51.350;17.286;2022-11-10T06:51:47;25.80;42.90
38020;DHT22;23829;51.350;17.286;2022-11-10T06:54:32;25.80;43.00
38020;DHT22;23829;51.350;17.286;2022-11-10T06:57:17;25.80;42.90
38020;DHT22;23829;51.350;17.286;2022-11-10T07:00:03;25.90;42.60
38020;DHT22;23829;51.350;17.286;2022-11-10T07:02:57;25.80;42.80
38020;DHT22;23829;51.350;17.286;2022-11-10T07:05:42;26.00;42.60
38020;DHT22;23829;51.350;17.286;2022-11-10T07:08:28;26.00;42.40
38020;DHT22;23829;51.350;17.286;2022-11-10T07:11:13;26.00;42.40
38020;DHT22;23829;51.350;17.286;2022-11-10T07:13:58;26.00;42.40
38020;DHT22;23829;51.350;17.286;2022-11-10T07:16:44;26.00;42.50
38020;DHT22;23829;51.350;17.286;2022-11-10T07:19:29;26.00;42.50
38020;DHT22;23829;51.350;17.286;2022-11-10T07:22:16;26.00;42.60
38020;DHT22;23829;51.350;17.286;2022-11-10T07:25:01;25.90;42.80
38020;DHT22;23829;51.350;17.286;2022-11-10T07:27:52;25.80;43.10
38020;DHT22;23829;51.350;17.286;2022-11-10T07:30:38;25.80;43.50
38020;DHT22;23829;51.350;17.286;2022-11-10T07:33:25;25.70;43.10
38020;DHT22;23829;51.350;17.286;2022-11-10T07:36:10;25.80;43.10
38020;DHT22;23829;51.350;17.286;2022-11-10T07:38:55;25.80;42.80
38020;DHT22;23829;51.350;17.286;2022-11-10T07:41:40;25.80;42.80
38020;DHT22;23829;51.350;17.286;2022-11-10T07:44:25;25.50;43.00
38020;DHT22;23829;51.350;17.286;2022-11-10T07:47:11;25.50;42.90
38020;DHT22;23829;51.350;17.286;2022-11-10T07:49:56;25.50;43.10
38020;DHT22;23829;51.350;17.286;2022-11-10T07:52:41;25.60;43.00
38020;DHT22;23829;51.350;17.286;2022-11-10T07:55:25;25.60;42.90
38020;DHT22;23829;51.350;17.286;2022-11-10T07:58:12;25.50;43.00
38020;DHT22;23829;51.350;17.286;2022-11-10T08:00:57;25.40;43.00
38020;DHT22;23829;51.350;17.286;2022-11-10T08:03:42;25.70;42.60
38020;DHT22;23829;51.350;17.286;2022-11-10T08:06:27;25.70;42.40
38020;DHT22;23829;51.350;17.286;2022-11-10T08:09:12;25.70;42.70
38020;DHT22;23829;51.350;17.286;2022-11-10T08:11:57;25.60;42.60
38020;DHT22;23829;51.350;17.286;2022-11-10T08:14:42;25.60;42.60
38020;DHT22;23829;51.350;17.286;2022-11-10T08:17:26;25.70;42.50
38020;DHT22;23829;51.350;17.286;2022-11-10T08:20:12;25.70;42.50
38020;DHT22;23829;51.350;17.286;2022-11-10T08:22:58;25.70;42.50
38020;DHT22;23829;51.350;17.286;2022-11-10T08:25:44;25.70;42.90
38020;DHT22;23829;51.350;17.286;2022-11-10T08:28:30;25.80;43.20
38020;DHT22;23829;51.350;17.286;2022-11-10T08:31:15;25.80;43.30
38020;DHT22;23829;51.350;17.286;2022-11-10T08:34:00;25.80;43.10
38020;DHT22;23829;51.350;17.286;2022-11-10T08:36:45;25.90;43.30
38020;DHT22;23829;51.350;17.286;2022-11-10T08:39:30;26.00;43.10
38020;DHT22;23829;51.350;17.286;2022-11-10T08:42:15;26.00;43.40
38020;DHT22;23829;51.350;17.286;2022-11-10T08:45:00;26.00;43.20
38020;DHT22;23829;51.350;17.286;2022-11-10T08:47:45;25.90;42.90
38020;DHT22;23829;51.350;17.286;2022-11-10T08:50:29;26.00;43.10
38020;DHT22;23829;51.350;17.286;2022-11-10T08:53:16;25.90;43.30
38020;DHT22;23829;51.350;17.286;2022-11-10T08:56:01;25.90;43.50
38020;DHT22;23829;51.350;17.286;2022-11-10T08:58:47;26.10;43.30
38020;DHT22;23829;51.350;17.286;2022-11-10T09:01:34;25.90;43.10
38020;DHT22;23829;51.350;17.286;2022-11-10T09:04:19;25.90;43.70
38020;DHT22;23829;51.350;17.286;2022-11-10T09:07:04;25.80;43.50
38020;DHT22;23829;51.350;17.286;2022-11-10T09:09:49;26.00;43.70
38020;DHT22;23829;51.350;17.286;2022-11-10T09:12:35;26.10;43.40
38020;DHT22;23829;51.350;17.286;2022-11-10T09:15:20;26.10;43.40
38020;DHT22;23829;51.350;17.286;2022-11-10T09:18:06;25.90;43.90
38020;DHT22;23829;51.350;17.286;2022-11-10T09:20:51;26.10;43.60
38020;DHT22;23829;51.350;17.286;2022-11-10T09:23:36;26.40;43.20
38020;DHT22;23829;51.350;17.286;2022-11-10T09:26:22;26.60;42.80
38020;DHT22;23829;51.350;17.286;2022-11-10T09:29:06;26.20;42.90
38020;DHT22;23829;51.350;17.286;2022-11-10T09:31:51;26.30;42.80
38020;DHT22;23829;51.350;17.286;2022-11-10T09:34:36;26.10;42.60
38020;DHT22;23829;51.350;17.286;2022-11-10T09:37:21;25.80;43.50
38020;DHT22;23829;51.350;17.286;2022-11-10T09:40:07;25.90;43.40
38020;DHT22;23829;51.350;17.286;2022-11-10T09:42:58;26.00;43.10
38020;DHT22;23829;51.350;17.286;2022-11-10T09:45:46;26.20;43.00
38020;DHT22;23829;51.350;17.286;2022-11-10T09:48:41;26.40;42.70
38020;DHT22;23829;51.350;17.286;2022-11-10T09:51:37;26.50;42.10
38020;DHT22;23829;51.350;17.286;2022-11-10T09:54:42;26.10;42.80
38020;DHT22;23829;51.350;17.286;2022-11-10T09:57:29;26.00;42.80
38020;DHT22;23829;51.350;17.286;2022-11-10T10:00:15;26.10;42.70
38020;DHT22;23829;51.350;17.286;2022-11-10T10:03:03;26.40;42.30
38020;DHT22;23829;51.350;17.286;2022-11-10T10:06:12;26.80;42.10
38020;DHT22;23829;51.350;17.286;2022-11-10T10:24:01;26.70;41.20
38020;DHT22;23829;51.350;17.286;2022-11-10T10:26:50;26.70;40.80
38020;DHT22;23829;51.350;17.286;2022-11-10T10:29:38;26.60;41.20
38020;DHT22;23829;51.350;17.286;2022-11-10T10:32:25;26.70;40.80
38020;DHT22;23829;51.350;17.286;2022-11-10T10:35:16;26.80;41.10
38020;DHT22;23829;51.350;17.286;2022-11-10T10:38:01;26.80;41.20
38020;DHT22;23829;51.350;17.286;2022-11-10T10:40:50;26.80;40.30
38020;DHT22;23829;51.350;17.286;2022-11-10T10:43:35;27.20;39.80
38020;DHT22;23829;51.350;17.286;2022-11-10T10:46:20;27.20;39.80
38020;DHT22;23829;51.350;17.286;2022-11-10T10:49:20;27.10;39.80
38020;DHT22;23829;51.350;17.286;2022-11-10T10:52:11;27.10;40.30
38020;DHT22;23829;51.350;17.286;2022-11-10T10:55:01;26.70;40.80
38020;DHT22;23829;51.350;17.286;2022-11-10T10:57:50;26.70;40.80
38020;DHT22;23829;51.350;17.286;2022-11-10T11:00:47;26.80;40.30
38020;DHT22;23829;51.350;17.286;2022-11-10T11:06:26;26.80;40.90
38020;DHT22;23829;51.350;17.286;2022-11-10T11:12:26;27.40;40.40
38020;DHT22;23829;51.350;17.286;2022-11-10T11:15:25;27.40;40.30
38020;DHT22;23829;51.350;17.286;2022-11-10T11:18:14;27.60;39.30
38020;DHT22;23829;51.350;17.286;2022-11-10T11:24:28;27.00;39.20
38020;DHT22;23829;51.350;17.286;2022-11-10T11:27:21;26.70;40.00
38020;DHT22;23829;51.350;17.286;2022-11-10T11:33:48;26.70;40.00
38020;DHT22;23829;51.350;17.286;2022-11-10T11:36:50;26.90;39.60
38020;DHT22;23829;51.350;17.286;2022-11-10T11:46:02;27.00;38.80
38020;DHT22;23829;51.350;17.286;2022-11-10T11:49:13;27.10;39.00
38020;DHT22;23829;51.350;17.286;2022-11-10T11:52:19;26.70;39.00
38020;DHT22;23829;51.350;17.286;2022-11-10T11:55:51;26.80;39.40
38020;DHT22;23829;51.350;17.286;2022-11-10T12:02:31;27.10;38.80
38020;DHT22;23829;51.350;17.286;2022-11-10T12:14:26;27.00;39.50
38020;DHT22;23829;51.350;17.286;2022-11-10T12:20:35;27.10;38.80
38020;DHT22;23829;51.350;17.286;2022-11-10T12:23:53;26.90;38.50
38020;DHT22;23829;51.350;17.286;2022-11-10T12:26:58;26.70;38.80
38020;DHT22;23829;51.350;17.286;2022-11-10T12:29:54;26.60;39.10
38020;DHT22;23829;51.350;17.286;2022-11-10T12:33:00;26.80;39.00
38020;DHT22;23829;51.350;17.286;2022-11-10T12:35:49;26.60;39.00
38020;DHT22;23829;51.350;17.286;2022-11-10T12:41:22;26.80;38.90
38020;DHT22;23829;51.350;17.286;2022-11-10T12:47:05;26.60;39.30
38020;DHT22;23829;51.350;17.286;2022-11-10T12:50:03;26.90;39.00
38020;DHT22;23829;51.350;17.286;2022-11-10T12:52:57;27.10;38.30
38020;DHT22;23829;51.350;17.286;2022-11-10T12:55:56;27.10;38.10
38020;DHT22;23829;51.350;17.286;2022-11-10T12:58:41;27.20;38.10
38020;DHT22;23829;51.350;17.286;2022-11-10T13:01:26;27.20;37.60
38020;DHT22;23829;51.350;17.286;2022-11-10T13:04:13;27.20;37.90
38020;DHT22;23829;51.350;17.286;2022-11-10T13:07:02;27.20;37.80
38020;DHT22;23829;51.350;17.286;2022-11-10T13:09:48;27.30;37.20
38020;DHT22;23829;51.350;17.286;2022-11-10T13:12:32;27.30;37.60
38020;DHT22;23829;51.350;17.286;2022-11-10T13:21:15;27.10;37.60
38020;DHT22;23829;51.350;17.286;2022-11-10T13:26:49;27.10;37.40
38020;DHT22;23829;51.350;17.286;2022-11-10T13:32:33;27.20;37.40
38020;DHT22;23829;51.350;17.286;2022-11-10T13:44:02;27.30;37.80
38020;DHT22;23829;51.350;17.286;2022-11-10T13:52:56;27.50;37.50
38020;DHT22;23829;51.350;17.286;2022-11-10T13:59:20;27.50;37.40
38020;DHT22;23829;51.350;17.286;2022-11-10T14:08:18;27.60;37.50
38020;DHT22;23829;51.350;17.286;2022-11-10T14:11:11;27.50;37.50
38020;DHT22;23829;51.350;17.286;2022-11-10T14:14:09;27.70;37.50
38020;DHT22;23829;51.350;17.286;2022-11-10T14:16:55;27.70;37.40
38020;DHT22;23829;51.350;17.286;2022-11-10T14:19:43;27.70;38.10
38020;DHT22;23829;51.350;17.286;2022-11-10T14:22:41;27.70;37.90
38020;DHT22;23829;51.350;17.286;2022-11-10T14:25:36;27.90;37.60
38020;DHT22;23829;51.350;17.286;2022-11-10T14:28:29;27.90;37.50
38020;DHT22;23829;51.350;17.286;2022-11-10T14:31:25;27.90;37.10
38020;DHT22;23829;51.350;17.286;2022-11-10T14:34:14;27.90;37.60
38020;DHT22;23829;51.350;17.286;2022-11-10T14:37:01;27.90;37.90
38020;DHT22;23829;51.350;17.286;2022-11-10T14:39:46;27.90;37.50
38020;DHT22;23829;51.350;17.286;2022-11-10T14:42:32;27.90;37.60
38020;DHT22;23829;51.350;17.286;2022-11-10T14:45:26;27.80;37.80
38020;DHT22;23829;51.350;17.286;2022-11-10T14:48:19;27.80;37.30
38020;DHT22;23829;51.350;17.286;2022-11-10T14:51:13;27.90;37.80
38020;DHT22;23829;51.350;17.286;2022-11-10T14:53:58;27.70;37.60
38020;DHT22;23829;51.350;17.286;2022-11-10T14:56:44;27.80;37.60
38020;DHT22;23829;51.350;17.286;2022-11-10T14:59:29;27.60;37.70
38020;DHT22;23829;51.350;17.286;2022-11-10T15:02:16;27.50;37.90
38020;DHT22;23829;51.350;17.286;2022-11-10T15:05:02;27.50;37.90
38020;DHT22;23829;51.350;17.286;2022-11-10T15:07:51;27.40;38.20
38020;DHT22;23829;51.350;17.286;2022-11-10T15:16:23;27.30;37.90
38020;DHT22;23829;51.350;17.286;2022-11-10T15:19:27;27.30;37.50
38020;DHT22;23829;51.350;17.286;2022-11-10T15:22:35;27.10;37.80
38020;DHT22;23829;51.350;17.286;2022-11-10T15:25:30;27.20;37.60
38020;DHT22;23829;51.350;17.286;2022-11-10T15:28:33;27.10;37.50
38020;DHT22;23829;51.350;17.286;2022-11-10T15:31:25;27.00;37.20
38020;DHT22;23829;51.350;17.286;2022-11-10T15:34:45;27.00;37.50
38020;DHT22;23829;51.350;17.286;2022-11-10T15:37:31;26.90;38.10
38020;DHT22;23829;51.350;17.286;2022-11-10T15:40:28;26.80;37.70
38020;DHT22;23829;51.350;17.286;2022-11-10T15:46:20;26.60;37.50
38020;DHT22;23829;51.350;17.286;2022-11-10T15:49:22;26.50;37.80
38020;DHT22;23829;51.350;17.286;2022-11-10T15:52:19;26.50;37.90
38020;DHT22;23829;51.350;17.286;2022-11-10T15:55:05;26.30;37.90
38020;DHT22;23829;51.350;17.286;2022-11-10T15:57:50;26.30;38.00
38020;DHT22;23829;51.350;17.286;2022-11-10T16:00:35;26.20;38.10
38020;DHT22;23829;51.350;17.286;2022-11-10T16:03:22;26.20;37.90
38020;DHT22;23829;51.350;17.286;2022-11-10T16:06:13;26.30;37.60
38020;DHT22;23829;51.350;17.286;2022-11-10T16:08:58;26.20;37.50
38020;DHT22;23829;51.350;17.286;2022-11-10T16:11:44;26.20;37.60
38020;DHT22;23829;51.350;17.286;2022-11-10T16:14:29;26.20;37.60
38020;DHT22;23829;51.350;17.286;2022-11-10T16:17:14;26.00;37.70
38020;DHT22;23829;51.350;17.286;2022-11-10T16:20:00;26.00;37.80
38020;DHT22;23829;51.350;17.286;2022-11-10T16:22:45;25.90;37.60
38020;DHT22;23829;51.350;17.286;2022-11-10T16:25:30;26.00;37.20
38020;DHT22;23829;51.350;17.286;2022-11-10T16:28:24;25.90;37.10
38020;DHT22;23829;51.350;17.286;2022-11-10T16:31:10;25.90;37.20
38020;DHT22;23829;51.350;17.286;2022-11-10T16:33:55;25.70;37.40
38020;DHT22;23829;51.350;17.286;2022-11-10T16:36:41;25.70;37.40
38020;DHT22;23829;51.350;17.286;2022-11-10T16:39:27;25.70;37.60
38020;DHT22;23829;51.350;17.286;2022-11-10T16:42:14;25.50;37.60
38020;DHT22;23829;51.350;17.286;2022-11-10T16:44:59;25.60;37.70
38020;DHT22;23829;51.350;17.286;2022-11-10T16:47:47;25.50;37.40
38020;DHT22;23829;51.350;17.286;2022-11-10T16:50:34;25.50;37.70
38020;DHT22;23829;51.350;17.286;2022-11-10T16:53:24;25.50;37.80
38020;DHT22;23829;51.350;17.286;2022-11-10T16:56:14;25.40;38.00
38020;DHT22;23829;51.350;17.286;2022-11-10T16:58:59;25.30;38.10
38020;DHT22;23829;51.350;17.286;2022-11-10T17:01:45;25.20;38.10
38020;DHT22;23829;51.350;17.286;2022-11-10T17:04:31;25.00;38.80
38020;DHT22;23829;51.350;17.286;2022-11-10T17:07:19;24.90;38.80
38020;DHT22;23829;51.350;17.286;2022-11-10T17:10:18;24.90;39.00
38020;DHT22;23829;51.350;17.286;2022-11-10T17:13:03;25.00;39.00
38020;DHT22;23829;51.350;17.286;2022-11-10T17:15:51;25.00;39.00
38020;DHT22;23829;51.350;17.286;2022-11-10T17:18:37;25.00;39.00
38020;DHT22;23829;51.350;17.286;2022-11-10T17:21:22;24.90;39.00
38020;DHT22;23829;51.350;17.286;2022-11-10T17:24:11;24.90;39.10
38020;DHT22;23829;51.350;17.286;2022-11-10T17:26:57;24.90;39.00
38020;DHT22;23829;51.350;17.286;2022-11-10T17:29:41;24.90;38.90
38020;DHT22;23829;51.350;17.286;2022-11-10T17:32:26;24.90;39.00
38020;DHT22;23829;51.350;17.286;2022-11-10T17:35:11;24.90;38.90
38020;DHT22;23829;51.350;17.286;2022-11-10T17:37:57;24.90;39.00
38020;DHT22;23829;51.350;17.286;2022-11-10T17:40:42;24.90;38.80
38020;DHT22;23829;51.350;17.286;2022-11-10T17:43:28;24.80;38.80
38020;DHT22;23829;51.350;17.286;2022-11-10T17:46:13;24.80;39.10
38020;DHT22;23829;51.350;17.286;2022-11-10T17:48:59;24.80;39.20
38020;DHT22;23829;51.350;17.286;2022-11-10T17:51:43;24.80;39.20
38020;DHT22;23829;51.350;17.286;2022-11-10T17:54:28;24.70;39.30
38020;DHT22;23829;51.350;17.286;2022-11-10T17:57:14;24.90;39.20
38020;DHT22;23829;51.350;17.286;2022-11-10T17:59:59;24.90;38.80
38020;DHT22;23829;51.350;17.286;2022-11-10T18:02:46;24.80;38.80
38020;DHT22;23829;51.350;17.286;2022-11-10T18:05:31;24.80;39.00
38020;DHT22;23829;51.350;17.286;2022-11-10T18:08:16;24.80;39.00
38020;DHT22;23829;51.350;17.286;2022-11-10T18:11:02;24.90;39.10
38020;DHT22;23829;51.350;17.286;2022-11-10T18:13:46;24.80;39.20
38020;DHT22;23829;51.350;17.286;2022-11-10T18:16:31;24.80;39.00
38020;DHT22;23829;51.350;17.286;2022-11-10T18:19:16;24.90;39.00
38020;DHT22;23829;51.350;17.286;2022-11-10T18:22:01;24.80;39.00
38020;DHT22;23829;51.350;17.286;2022-11-10T18:24:46;24.80;38.90
38020;DHT22;23829;51.350;17.286;2022-11-10T18:27:31;24.80;38.90
38020;DHT22;23829;51.350;17.286;2022-11-10T18:30:16;24.80;39.20
38020;DHT22;23829;51.350;17.286;2022-11-10T18:33:03;24.70;39.20
38020;DHT22;23829;51.350;17.286;2022-11-10T18:35:48;24.80;39.20
38020;DHT22;23829;51.350;17.286;2022-11-10T18:38:34;24.70;39.20
38020;DHT22;23829;51.350;17.286;2022-11-10T18:41:19;24.80;39.30
38020;DHT22;23829;51.350;17.286;2022-11-10T18:44:23;24.80;39.30
38020;DHT22;23829;51.350;17.286;2022-11-10T18:47:10;24.80;39.30
38020;DHT22;23829;51.350;17.286;2022-11-10T18:49:56;24.80;39.50
38020;DHT22;23829;51.350;17.286;2022-11-10T18:52:41;24.80;39.60
38020;DHT22;23829;51.350;17.286;2022-11-10T18:55:26;24.80;39.50
38020;DHT22;23829;51.350;17.286;2022-11-10T18:58:11;24.90;39.80
38020;DHT22;23829;51.350;17.286;2022-11-10T19:01:07;24.80;39.70
38020;DHT22;23829;51.350;17.286;2022-11-10T19:03:52;24.80;39.90
38020;DHT22;23829;51.350;17.286;2022-11-10T19:06:38;24.80;39.90
38020;DHT22;23829;51.350;17.286;2022-11-10T19:09:23;24.80;40.10
38020;DHT22;23829;51.350;17.286;2022-11-10T19:12:09;25.00;40.50
38020;DHT22;23829;51.350;17.286;2022-11-10T19:14:55;25.00;39.90